Airport ID:KCCB
Update Time (UTC):01/04/2020 18:19
Wind Speed (Knots):4
Wind Direction (Magnetic):190
Temperature (°C):18.9
Dew Point (°C):6.6
Humidity (%):45.2
Altimeter (inHg):29.88
Density Altitude (Feet):
Visibility (Miles):10
Clouds (Hundreds of feet):CLR
Present Weather:
METAR:METAR KCCB 011815Z AUTO VRB03KT 10SM CLR 19/07 A2988 RMK AO2

The data displayed is for advisory purposes only and is not to be used for flight planning or operations.

This page is not automatically refreshed. Reload the page to see current data.